Time;durP1;ratioP1;P1;durP2;ratioP2;P2;SDS_P1;SDS_P2;PMS_P1;PMS_P2;Temp;Humidity;BMP_temperature;BMP_pressure;BME280_temperature;BME280_humidity;BME280_pressure;Samples;Min_cycle;Max_cycle;Signal;HPM_P1;HPM_P2
2021/07/23 00:00:16;;;;;;;2.77;0.87;;;13.20;99.90;;;;;;5033629;28;20230;-69
2021/07/23 00:02:44;;;;;;;1.87;1.07;;;13.40;99.90;;;;;;5024786;28;20188;-72
2021/07/23 00:05:11;;;;;;;2.77;1.00;;;13.40;99.90;;;;;;5023050;28;20238;-71
2021/07/23 00:07:39;;;;;;;2.90;1.20;;;13.40;99.90;;;;;;5026244;28;20181;-70
2021/07/23 00:10:06;;;;;;;2.90;1.23;;;13.50;99.90;;;;;;5030624;28;20201;-66
2021/07/23 00:12:34;;;;;;;4.03;1.17;;;13.70;99.90;;;;;;5015460;28;20702;-70
2021/07/23 00:15:01;;;;;;;1.73;0.93;;;13.90;99.90;;;;;;5027966;28;20182;-69
2021/07/23 00:17:28;;;;;;;3.17;1.17;;;14.20;99.90;;;;;;5020296;28;20648;-71
2021/07/23 00:19:56;;;;;;;2.00;0.80;;;14.60;99.90;;;;;;5025761;28;20239;-70
2021/07/23 00:22:23;;;;;;;2.67;1.00;;;14.50;99.90;;;;;;5028986;28;20230;-70
2021/07/23 00:24:50;;;;;;;1.40;0.87;;;14.50;99.90;;;;;;5028291;28;20319;-69
2021/07/23 00:27:18;;;;;;;1.10;0.97;;;14.40;99.90;;;;;;5025112;28;20181;-68
2021/07/23 00:29:45;;;;;;;1.77;1.10;;;14.50;99.90;;;;;;5025169;28;20205;-70
2021/07/23 00:32:12;;;;;;;1.47;1.03;;;14.50;99.90;;;;;;5018642;28;20221;-71
2021/07/23 00:34:40;;;;;;;2.70;0.90;;;14.40;99.90;;;;;;5032408;28;20181;-67
2021/07/23 00:37:07;;;;;;;2.23;1.10;;;14.20;99.90;;;;;;5027571;28;20319;-68
2021/07/23 00:39:34;;;;;;;1.97;1.33;;;14.20;99.90;;;;;;5032070;28;20227;-67
2021/07/23 00:42:02;;;;;;;2.87;1.30;;;14.20;99.90;;;;;;5033063;28;20199;-68
2021/07/23 00:44:29;;;;;;;1.77;1.23;;;14.30;99.90;;;;;;5029088;28;20710;-67
2021/07/23 00:46:57;;;;;;;6.40;0.97;;;14.40;99.90;;;;;;5032107;28;20173;-71
2021/07/23 00:49:25;;;;;;;3.43;0.80;;;14.40;99.90;;;;;;5028649;28;20189;-67
2021/07/23 00:51:52;;;;;;;1.97;1.20;;;14.40;99.90;;;;;;5020718;28;20185;-70
2021/07/23 00:54:21;;;;;;;1.33;0.80;;;14.40;99.90;;;;;;5041106;28;20184;-68
2021/07/23 00:56:48;;;;;;;3.10;1.30;;;14.40;99.90;;;;;;5023338;28;20185;-67
2021/07/23 00:59:16;;;;;;;1.47;1.00;;;14.40;99.90;;;;;;5026935;28;20629;-68
2021/07/23 01:01:44;;;;;;;1.50;1.10;;;14.40;99.90;;;;;;5032463;28;20189;-70
2021/07/23 01:04:12;;;;;;;2.60;1.00;;;14.50;99.90;;;;;;5032386;28;20195;-73
2021/07/23 01:06:39;;;;;;;2.00;0.97;;;14.50;99.90;;;;;;5021651;28;20218;-70
2021/07/23 01:09:07;;;;;;;2.27;1.07;;;14.50;99.90;;;;;;5015751;28;20555;-71
2021/07/23 01:11:37;;;;;;;1.20;0.90;;;14.60;99.90;;;;;;5024889;28;20667;-67
2021/07/23 01:14:06;;;;;;;1.83;0.93;;;14.60;99.90;;;;;;5032709;28;20267;-68
2021/07/23 01:16:33;;;;;;;4.10;1.10;;;14.60;99.90;;;;;;5032387;28;20180;-70
2021/07/23 01:19:01;;;;;;;3.00;1.03;;;14.70;99.90;;;;;;5032291;28;20216;-68
2021/07/23 01:21:29;;;;;;;1.10;1.00;;;14.80;99.90;;;;;;5032652;28;20170;-69
2021/07/23 01:23:59;;;;;;;2.40;1.00;;;14.90;99.90;;;;;;5023927;28;20192;-71
2021/07/23 01:26:27;;;;;;;2.20;1.00;;;15.00;99.90;;;;;;5012727;28;20545;-70
2021/07/23 01:28:54;;;;;;;1.27;0.87;;;15.20;99.90;;;;;;5030429;28;20246;-68
2021/07/23 01:31:22;;;;;;;0.73;0.70;;;15.40;99.90;;;;;;5032179;28;20577;-70
2021/07/23 01:33:49;;;;;;;2.40;0.70;;;15.60;99.90;;;;;;5032116;28;20267;-69
2021/07/23 01:36:17;;;;;;;2.93;0.90;;;15.60;99.90;;;;;;5032356;28;20173;-67
2021/07/23 01:38:47;;;;;;;3.53;0.83;;;15.60;99.90;;;;;;5031509;28;20213;-71
2021/07/23 01:41:14;;;;;;;4.53;0.90;;;15.40;99.90;;;;;;5032249;28;20192;-67
2021/07/23 01:43:42;;;;;;;1.57;0.70;;;15.30;99.90;;;;;;5032369;28;20634;-68
2021/07/23 01:46:09;;;;;;;1.73;0.77;;;15.50;99.90;;;;;;5032026;28;20182;-68
2021/07/23 01:48:36;;;;;;;6.53;1.03;;;15.70;99.90;;;;;;5032362;28;20611;-69
2021/07/23 01:51:04;;;;;;;2.20;0.80;;;16.00;99.90;;;;;;5032143;28;20536;-69
2021/07/23 01:53:31;;;;;;;0.80;0.60;;;16.20;99.20;;;;;;5031963;28;20198;-69
2021/07/23 01:55:58;;;;;;;1.77;0.97;;;16.30;98.80;;;;;;5029952;28;20274;-68
2021/07/23 01:58:30;;;;;;;1.80;0.90;;;16.20;99.20;;;;;;5031152;28;20205;-68
2021/07/23 02:00:58;;;;;;;1.00;0.80;;;15.90;99.60;;;;;;5029738;28;20226;-68
2021/07/23 02:03:26;;;;;;;3.47;0.80;;;15.90;99.90;;;;;;5018056;28;20238;-68
2021/07/23 02:05:53;;;;;;;1.63;0.60;;;16.20;99.70;;;;;;5030522;28;20186;-68
2021/07/23 02:08:20;;;;;;;2.77;0.93;;;16.60;98.40;;;;;;5032026;28;20681;-67
2021/07/23 02:10:48;;;;;;;1.60;0.87;;;16.50;98.80;;;;;;5028184;28;20549;-68
2021/07/23 02:13:16;;;;;;;0.83;0.80;;;16.40;98.80;;;;;;5032253;28;20184;-68
2021/07/23 02:15:44;;;;;;;1.53;0.93;;;16.60;98.80;;;;;;5016069;28;20180;-68
2021/07/23 02:18:12;;;;;;;1.70;0.80;;;17.00;97.60;;;;;;5034266;28;20580;-69
2021/07/23 02:20:39;;;;;;;3.53;1.00;;;17.10;97.70;;;;;;5032182;28;20184;-69
2021/07/23 02:23:06;;;;;;;1.20;0.80;;;17.10;97.60;;;;;;5035371;28;20561;-68
2021/07/23 02:25:34;;;;;;;1.43;0.90;;;17.00;97.80;;;;;;5033756;28;20177;-67
2021/07/23 02:28:03;;;;;;;2.10;0.73;;;16.90;97.50;;;;;;5019056;28;20172;-71
2021/07/23 02:30:30;;;;;;;1.10;0.73;;;16.80;98.00;;;;;;5023345;28;20705;-68
2021/07/23 02:32:58;;;;;;;1.13;0.90;;;16.70;97.80;;;;;;5027162;28;20691;-72
2021/07/23 02:35:25;;;;;;;0.60;0.60;;;16.70;97.80;;;;;;5026189;28;20660;-72
2021/07/23 02:37:52;;;;;;;0.70;0.70;;;16.50;98.10;;;;;;5035602;28;20209;-72
2021/07/23 02:40:20;;;;;;;2.03;0.90;;;16.50;98.40;;;;;;5034395;28;20694;-70
2021/07/23 02:42:47;;;;;;;4.00;0.90;;;16.70;98.20;;;;;;5031308;28;20643;-70
2021/07/23 02:45:15;;;;;;;1.87;0.87;;;16.80;98.10;;;;;;5023050;28;20624;-70
2021/07/23 02:47:42;;;;;;;1.87;0.90;;;16.70;98.10;;;;;;5027021;28;20176;-71
2021/07/23 02:50:09;;;;;;;2.80;0.90;;;16.70;98.20;;;;;;5027776;28;20181;-70
2021/07/23 02:52:37;;;;;;;1.07;0.73;;;17.00;97.50;;;;;;5023326;28;20639;-69
2021/07/23 02:55:05;;;;;;;1.13;0.80;;;17.00;97.20;;;;;;5027565;28;20210;-70
2021/07/23 02:57:32;;;;;;;1.13;0.63;;;17.10;97.50;;;;;;5034903;28;20190;-70
2021/07/23 03:00:00;;;;;;;1.40;0.77;;;17.10;97.50;;;;;;5029637;28;20197;-70
2021/07/23 03:02:27;;;;;;;1.30;0.70;;;17.20;98.00;;;;;;5018543;28;20218;-70
2021/07/23 03:04:54;;;;;;;2.33;1.00;;;17.20;97.40;;;;;;5034238;28;20524;-70
2021/07/23 03:07:22;;;;;;;1.40;0.70;;;17.30;97.30;;;;;;5034711;28;20169;-69
2021/07/23 03:09:49;;;;;;;2.33;0.80;;;17.20;97.30;;;;;;5016762;28;20669;-68
2021/07/23 03:12:16;;;;;;;1.90;0.90;;;17.10;98.00;;;;;;5034200;28;20661;-71
2021/07/23 03:14:44;;;;;;;1.73;1.00;;;16.90;97.60;;;;;;5031063;28;20191;-68
2021/07/23 03:17:11;;;;;;;3.83;1.00;;;16.80;97.80;;;;;;5026986;28;20213;-68
2021/07/23 03:19:38;;;;;;;1.53;0.90;;;16.80;98.10;;;;;;5022607;28;20274;-70
2021/07/23 03:22:06;;;;;;;1.47;0.83;;;17.00;98.20;;;;;;5019564;28;20207;-70
2021/07/23 03:24:36;;;;;;;2.93;1.00;;;17.00;98.00;;;;;;5024424;28;20212;-70
2021/07/23 03:27:03;;;;;;;1.67;0.70;;;16.80;98.20;;;;;;5025856;28;20510;-70
2021/07/23 03:29:31;;;;;;;1.17;0.80;;;16.80;98.50;;;;;;5011765;28;20632;-69
2021/07/23 03:31:59;;;;;;;2.87;0.87;;;16.90;98.60;;;;;;5026742;28;20232;-69
2021/07/23 03:34:26;;;;;;;3.03;0.80;;;16.70;98.40;;;;;;5029512;28;20241;-70
2021/07/23 03:36:53;;;;;;;1.23;0.80;;;16.70;98.10;;;;;;5017623;28;20194;-70
2021/07/23 03:39:21;;;;;;;1.57;0.80;;;16.70;98.60;;;;;;5019116;28;20220;-69
2021/07/23 03:41:48;;;;;;;1.87;0.80;;;16.50;98.80;;;;;;5031333;28;20187;-68
2021/07/23 03:44:15;;;;;;;3.60;0.70;;;16.50;99.10;;;;;;5025464;28;20266;-69
2021/07/23 03:46:43;;;;;;;1.47;0.70;;;16.50;99.10;;;;;;5024279;28;20231;-69
2021/07/23 03:49:10;;;;;;;2.73;1.20;;;16.50;99.10;;;;;;5020682;28;20732;-69
2021/07/23 03:51:37;;;;;;;3.53;1.10;;;16.40;99.10;;;;;;5023271;28;20194;-70
2021/07/23 03:54:05;;;;;;;4.17;0.90;;;16.30;99.20;;;;;;5027085;28;20520;-70
2021/07/23 03:56:32;;;;;;;2.20;1.10;;;16.20;99.10;;;;;;5027355;28;20244;-70
2021/07/23 03:58:59;;;;;;;2.00;1.00;;;16.20;99.50;;;;;;5026795;28;20225;-71
2021/07/23 04:01:27;;;;;;;1.33;0.70;;;16.10;99.50;;;;;;5024719;28;20184;-69
2021/07/23 04:03:54;;;;;;;2.00;1.00;;;16.10;99.90;;;;;;5028528;28;20646;-68
2021/07/23 04:06:21;;;;;;;1.43;0.80;;;16.10;99.90;;;;;;5023129;28;20192;-70
2021/07/23 04:08:49;;;;;;;4.80;1.17;;;16.10;99.90;;;;;;5021819;28;20189;-70
2021/07/23 04:11:19;;;;;;;3.13;0.90;;;16.00;99.90;;;;;;4996369;28;20213;-69
2021/07/23 04:13:46;;;;;;;3.50;1.17;;;16.00;99.90;;;;;;5020600;28;20189;-68
2021/07/23 04:16:13;;;;;;;2.83;1.10;;;16.00;99.90;;;;;;5024700;28;20614;-69
2021/07/23 04:18:41;;;;;;;7.23;1.07;;;16.00;99.90;;;;;;5019203;28;20741;-69
2021/07/23 04:21:08;;;;;;;4.53;1.10;;;15.90;99.90;;;;;;5019426;28;20185;-71
2021/07/23 04:23:35;;;;;;;3.17;1.10;;;15.90;99.90;;;;;;5020691;28;20181;-68
2021/07/23 04:26:04;;;;;;;4.33;2.07;;;15.80;99.90;;;;;;5026851;28;20663;-68
2021/07/23 04:28:31;;;;;;;4.00;1.03;;;15.80;99.90;;;;;;5003832;28;20211;-69
2021/07/23 04:30:58;;;;;;;2.73;1.40;;;15.70;99.90;;;;;;5007227;28;20593;-68
2021/07/23 04:33:26;;;;;;;2.80;1.30;;;15.60;99.90;;;;;;5022930;28;20197;-69
2021/07/23 04:35:53;;;;;;;2.17;1.10;;;15.60;99.90;;;;;;5019403;28;20176;-69
2021/07/23 04:38:20;;;;;;;3.43;1.70;;;15.50;99.90;;;;;;5017057;28;20212;-68
2021/07/23 04:40:48;;;;;;;3.90;1.10;;;15.50;99.90;;;;;;5020568;28;20192;-69
2021/07/23 04:43:15;;;;;;;11.63;7.73;;;15.40;99.90;;;;;;5020323;28;20669;-67
2021/07/23 04:45:42;;;;;;;5.43;3.60;;;15.40;99.90;;;;;;5023584;28;20598;-68
2021/07/23 04:48:10;;;;;;;9.23;5.53;;;15.50;99.90;;;;;;5023189;28;20287;-69
2021/07/23 04:50:37;;;;;;;7.03;3.60;;;15.50;99.90;;;;;;5009447;28;20539;-69
2021/07/23 04:53:04;;;;;;;4.53;2.13;;;15.40;99.90;;;;;;5031186;28;20238;-69
2021/07/23 04:55:32;;;;;;;5.00;1.60;;;15.40;99.90;;;;;;5032896;28;20180;-69
2021/07/23 04:57:59;;;;;;;4.00;1.40;;;15.30;99.90;;;;;;5032510;28;20299;-69
2021/07/23 05:00:26;;;;;;;2.20;1.00;;;15.30;99.90;;;;;;5032075;28;20182;-70
2021/07/23 05:02:55;;;;;;;3.33;1.47;;;15.20;99.90;;;;;;5032040;28;20177;-69
2021/07/23 05:05:23;;;;;;;2.90;1.73;;;15.10;99.90;;;;;;5028287;28;20176;-68
2021/07/23 05:07:51;;;;;;;5.83;1.60;;;15.00;99.90;;;;;;5028360;28;20734;-68
2021/07/23 05:10:19;;;;;;;6.77;4.07;;;15.00;99.90;;;;;;5017746;28;20228;-68
2021/07/23 05:12:47;;;;;;;9.13;2.07;;;14.90;99.90;;;;;;5032523;28;20187;-69
2021/07/23 05:15:14;;;;;;;6.20;1.90;;;14.80;99.90;;;;;;5032356;28;20175;-68
2021/07/23 05:17:42;;;;;;;4.97;1.73;;;14.80;99.90;;;;;;5028111;28;20709;-68
2021/07/23 05:20:10;;;;;;;1.83;1.20;;;14.80;99.90;;;;;;5013884;28;20276;-68
2021/07/23 05:22:39;;;;;;;6.33;1.73;;;14.80;99.90;;;;;;5022277;28;20178;-68
2021/07/23 05:25:08;;;;;;;2.67;1.47;;;14.80;99.90;;;;;;5032359;28;20706;-68
2021/07/23 05:27:36;;;;;;;1.43;1.30;;;14.90;99.90;;;;;;5018860;28;20231;-68
2021/07/23 05:30:04;;;;;;;4.00;1.90;;;14.90;99.90;;;;;;5018382;28;20196;-68
2021/07/23 05:32:31;;;;;;;6.27;1.60;;;14.90;99.90;;;;;;5022830;28;20308;-67
2021/07/23 05:35:00;;;;;;;4.40;1.47;;;14.90;99.90;;;;;;5031660;28;20256;-68
2021/07/23 05:37:27;;;;;;;2.70;1.60;;;14.80;99.90;;;;;;5032383;28;20181;-68
2021/07/23 05:39:54;;;;;;;5.40;1.70;;;14.90;99.90;;;;;;5032486;28;20269;-68
2021/07/23 05:42:22;;;;;;;1.63;1.27;;;14.90;99.90;;;;;;5032305;28;20172;-68
2021/07/23 05:44:49;;;;;;;6.17;1.77;;;14.90;99.90;;;;;;5031967;28;20635;-68
2021/07/23 05:47:18;;;;;;;7.50;1.83;;;14.80;99.90;;;;;;5032381;28;20585;-68
2021/07/23 05:49:45;;;;;;;8.20;2.37;;;14.80;99.90;;;;;;5034732;28;20179;-68
2021/07/23 05:52:13;;;;;;;6.80;2.63;;;14.70;99.90;;;;;;5036426;28;20181;-68
2021/07/23 05:54:40;;;;;;;5.63;2.73;;;14.70;99.90;;;;;;5029912;28;20185;-68
2021/07/23 05:57:08;;;;;;;12.10;4.50;;;14.70;99.90;;;;;;5026552;28;20716;-68
2021/07/23 05:59:35;;;;;;;8.67;3.57;;;14.60;99.90;;;;;;5036163;28;20200;-68
2021/07/23 06:02:02;;;;;;;11.63;2.80;;;14.60;99.90;;;;;;5034728;28;20192;-68
2021/07/23 06:04:30;;;;;;;5.00;2.10;;;14.60;99.90;;;;;;5036390;28;20181;-68
2021/07/23 06:06:57;;;;;;;10.77;3.20;;;14.50;99.90;;;;;;5030055;28;20193;-67
2021/07/23 06:09:24;;;;;;;3.33;2.10;;;14.50;99.90;;;;;;5024810;28;20251;-68
2021/07/23 06:11:52;;;;;;;2.70;2.10;;;14.50;99.90;;;;;;5016452;28;20183;-67
2021/07/23 06:14:19;;;;;;;3.20;1.53;;;14.50;99.90;;;;;;5025808;28;20648;-68
2021/07/23 06:16:46;;;;;;;12.50;2.47;;;14.40;99.90;;;;;;5019493;28;20267;-67
2021/07/23 06:19:13;;;;;;;7.93;2.00;;;14.40;99.90;;;;;;5016379;28;20252;-67
2021/07/23 06:21:41;;;;;;;3.57;2.13;;;14.40;99.90;;;;;;5020028;28;20195;-67
2021/07/23 06:24:08;;;;;;;3.77;2.00;;;14.40;99.90;;;;;;5026801;28;20644;-67
2021/07/23 06:26:39;;;;;;;4.30;2.23;;;14.40;99.90;;;;;;5030786;28;20196;-67
2021/07/23 06:29:06;;;;;;;10.73;3.07;;;14.40;99.90;;;;;;5024246;28;20195;-67
2021/07/23 06:31:35;;;;;;;4.73;2.00;;;14.30;99.90;;;;;;5032565;28;20227;-67
2021/07/23 06:34:03;;;;;;;5.10;2.33;;;14.30;99.90;;;;;;5029373;28;20201;-67
2021/07/23 06:36:34;;;;;;;3.93;2.03;;;14.30;99.90;;;;;;5020636;28;20201;-67
2021/07/23 06:39:01;;;;;;;4.33;2.57;;;14.30;99.90;;;;;;5022891;28;20205;-67
2021/07/23 06:41:28;;;;;;;4.07;2.17;;;14.40;99.90;;;;;;5017375;28;20185;-67
2021/07/23 06:43:56;;;;;;;3.73;2.03;;;14.40;99.90;;;;;;5034132;28;20662;-68
2021/07/23 06:46:23;;;;;;;3.30;2.03;;;14.40;99.90;;;;;;5031686;28;20180;-67
2021/07/23 06:48:50;;;;;;;4.03;1.60;;;14.40;99.90;;;;;;5031601;28;20540;-68
2021/07/23 06:51:18;;;;;;;4.73;1.77;;;14.40;99.90;;;;;;5030345;28;20173;-68
2021/07/23 06:53:45;;;;;;;4.33;1.67;;;14.40;99.90;;;;;;5020158;28;20181;-68
2021/07/23 06:56:13;;;;;;;3.93;1.90;;;14.50;99.90;;;;;;5022813;28;20172;-68
2021/07/23 06:58:40;;;;;;;7.37;2.73;;;14.50;99.90;;;;;;5020770;28;20215;-68
2021/07/23 07:01:08;;;;;;;4.97;2.10;;;14.50;99.90;;;;;;5024931;28;20181;-67
2021/07/23 07:03:36;;;;;;;4.37;1.80;;;14.50;99.90;;;;;;5023574;28;20168;-68
2021/07/23 07:06:04;;;;;;;3.50;1.40;;;14.60;99.90;;;;;;5022139;28;20213;-68
2021/07/23 07:08:32;;;;;;;2.77;1.40;;;14.60;99.90;;;;;;5027997;28;20207;-69
2021/07/23 07:11:01;;;;;;;3.80;1.30;;;14.80;99.90;;;;;;5021605;28;20254;-69
2021/07/23 07:13:29;;;;;;;2.60;1.93;;;14.80;99.90;;;;;;5027528;28;20183;-69
2021/07/23 07:15:56;;;;;;;4.17;1.50;;;14.80;99.90;;;;;;5028109;28;20222;-69
2021/07/23 07:18:24;;;;;;;4.00;1.60;;;14.80;99.90;;;;;;5022181;28;20224;-71
2021/07/23 07:20:51;;;;;;;5.13;1.63;;;14.80;99.90;;;;;;5032336;28;20197;-69
2021/07/23 07:23:18;;;;;;;4.33;1.40;;;14.80;99.90;;;;;;5026763;28;20239;-69
2021/07/23 07:25:45;;;;;;;4.60;1.77;;;14.80;99.90;;;;;;5023269;28;20541;-69
2021/07/23 07:28:13;;;;;;;3.57;1.60;;;14.90;99.90;;;;;;5034583;28;20166;-68
2021/07/23 07:30:45;;;;;;;4.87;1.57;;;14.90;99.90;;;;;;5034360;28;20180;-69
2021/07/23 07:33:13;;;;;;;9.47;1.53;;;14.80;99.90;;;;;;5034151;28;20187;-69
2021/07/23 07:35:47;;;;;;;7.00;2.27;;;14.90;99.90;;;;;;5024949;28;20172;-69
2021/07/23 07:38:14;;;;;;;8.47;1.60;;;14.90;99.90;;;;;;5034045;28;20208;-68
2021/07/23 07:40:41;;;;;;;4.90;1.67;;;14.90;99.90;;;;;;5034016;28;20268;-68
2021/07/23 07:43:09;;;;;;;6.07;1.77;;;14.80;99.90;;;;;;5021472;28;20181;-69
2021/07/23 07:45:36;;;;;;;3.93;2.07;;;14.80;99.90;;;;;;5025681;28;20185;-67
2021/07/23 07:48:04;;;;;;;4.60;2.03;;;14.80;99.90;;;;;;5027483;28;20180;-69
2021/07/23 07:50:32;;;;;;;6.17;2.20;;;14.80;99.90;;;;;;5029525;28;20183;-68
2021/07/23 07:52:59;;;;;;;7.40;2.00;;;14.70;99.90;;;;;;5014151;28;20189;-68
2021/07/23 07:55:28;;;;;;;3.37;1.77;;;14.70;99.90;;;;;;5022318;28;20223;-70
2021/07/23 07:57:55;;;;;;;3.60;2.10;;;14.70;99.90;;;;;;5014187;28;20257;-69
2021/07/23 08:00:22;;;;;;;6.83;2.23;;;14.70;99.90;;;;;;5029837;28;20173;-69
2021/07/23 08:02:50;;;;;;;4.33;2.10;;;14.80;99.90;;;;;;5033170;28;20554;-69
2021/07/23 08:05:17;;;;;;;7.43;2.13;;;14.70;99.90;;;;;;5032280;28;20174;-68
2021/07/23 08:07:45;;;;;;;7.20;2.10;;;14.70;99.90;;;;;;5015094;28;20188;-69
2021/07/23 08:10:15;;;;;;;8.90;5.37;;;14.70;99.90;;;;;;5021949;28;20190;-68
2021/07/23 08:12:42;;;;;;;5.63;2.90;;;14.70;99.90;;;;;;5015456;28;20172;-68
2021/07/23 08:15:10;;;;;;;7.17;3.30;;;14.70;99.90;;;;;;5031620;28;20191;-70
2021/07/23 08:17:38;;;;;;;6.03;2.67;;;14.70;99.90;;;;;;5020363;28;20179;-68
2021/07/23 08:20:06;;;;;;;11.27;4.07;;;14.70;99.90;;;;;;5029665;28;20238;-69
2021/07/23 08:22:34;;;;;;;4.93;2.73;;;14.70;99.90;;;;;;5017139;28;20264;-69
2021/07/23 08:25:02;;;;;;;8.80;2.73;;;14.60;99.90;;;;;;5030055;28;20707;-69
2021/07/23 08:27:29;;;;;;;7.73;2.53;;;14.60;99.90;;;;;;5014555;28;20256;-68
2021/07/23 08:29:58;;;;;;;6.07;2.40;;;14.70;99.90;;;;;;5033212;28;20176;-69
2021/07/23 08:32:25;;;;;;;5.87;2.23;;;14.60;99.90;;;;;;5033231;28;20229;-68
2021/07/23 08:34:59;;;;;;;7.77;2.47;;;14.60;99.90;;;;;;5030411;28;20172;-68
2021/07/23 08:37:26;;;;;;;5.10;2.23;;;14.60;99.90;;;;;;5023400;28;20671;-68
2021/07/23 08:39:54;;;;;;;5.57;2.87;;;14.60;99.90;;;;;;5030877;28;20231;-70
2021/07/23 08:42:28;;;;;;;7.70;3.23;;;14.70;99.90;;;;;;5030240;28;20191;-68
2021/07/23 08:44:57;;;;;;;5.07;2.90;;;14.70;99.90;;;;;;5030075;28;20650;-69
2021/07/23 08:47:25;;;;;;;4.13;2.63;;;14.60;99.90;;;;;;5032118;28;20230;-68
2021/07/23 08:49:54;;;;;;;7.17;3.57;;;14.60;99.90;;;;;;5030238;28;20238;-68
2021/07/23 08:52:54;;;;;;;7.57;3.87;;;14.60;99.90;;;;;;5029989;28;20332;-68
2021/07/23 08:55:23;;;;;;;8.70;3.50;;;14.60;99.90;;;;;;5032433;28;20180;-68
2021/07/23 08:57:51;;;;;;;12.77;7.90;;;14.60;99.90;;;;;;5032554;28;20178;-67
2021/07/23 09:00:23;;;;;;;21.50;13.03;;;14.60;99.90;;;;;;5018823;28;20272;-68
2021/07/23 09:03:09;;;;;;;12.13;4.90;;;14.60;99.90;;;;;;5032656;28;20501;-68
2021/07/23 09:05:37;;;;;;;6.13;2.63;;;14.60;99.90;;;;;;5021265;28;20179;-68
2021/07/23 09:08:15;;;;;;;5.53;2.73;;;14.60;99.90;;;;;;5027499;28;20181;-67
2021/07/23 09:10:43;;;;;;;3.80;2.50;;;14.60;99.90;;;;;;5021050;28;20208;-67
2021/07/23 09:13:13;;;;;;;5.47;2.60;;;14.70;99.90;;;;;;5032259;28;20533;-68
2021/07/23 09:15:44;;;;;;;6.93;2.80;;;14.70;99.90;;;;;;5032335;28;20180;-68
2021/07/23 09:18:31;;;;;;;9.13;3.07;;;14.60;99.90;;;;;;5025149;28;20233;-68
2021/07/23 09:21:02;;;;;;;6.37;3.10;;;14.70;99.90;;;;;;5031942;28;20177;-68
2021/07/23 09:23:37;;;;;;;4.63;2.93;;;14.70;99.90;;;;;;5020243;28;20227;-67
2021/07/23 09:26:10;;;;;;;4.73;2.80;;;14.70;99.90;;;;;;5029566;28;20192;-68
2021/07/23 09:28:44;;;;;;;7.93;3.13;;;14.70;99.90;;;;;;5024642;28;20177;-68
2021/07/23 09:31:22;;;;;;;5.70;3.10;;;14.70;99.90;;;;;;5029929;28;20212;-68
2021/07/23 09:34:00;;;;;;;7.73;3.27;;;14.70;99.90;;;;;;5030571;28;20258;-67
2021/07/23 09:36:28;;;;;;;6.03;2.70;;;14.70;99.90;;;;;;5032236;28;20187;-69
2021/07/23 09:39:10;;;;;;;7.13;3.13;;;14.70;99.90;;;;;;5031197;28;20553;-68
2021/07/23 09:41:37;;;;;;;6.80;3.13;;;14.60;99.90;;;;;;5031264;28;20237;-68
2021/07/23 09:44:12;;;;;;;7.40;3.87;;;14.50;99.90;;;;;;5031613;28;20175;-67
2021/07/23 09:46:47;;;;;;;9.33;4.13;;;14.50;99.90;;;;;;5023904;28;20639;-67
2021/07/23 09:49:21;;;;;;;6.70;3.40;;;14.40;99.90;;;;;;5029399;28;20168;-69
2021/07/23 09:51:50;;;;;;;6.40;3.37;;;14.30;99.90;;;;;;5024461;28;20544;-68
2021/07/23 09:54:20;;;;;;;11.53;4.37;;;14.20;99.90;;;;;;5021866;28;20169;-67
2021/07/23 09:56:49;;;;;;;7.70;4.47;;;14.10;99.90;;;;;;5023539;28;20189;-69
2021/07/23 09:59:24;;;;;;;7.40;5.60;;;14.10;99.90;;;;;;5031636;28;20208;-68
2021/07/23 10:02:00;;;;;;;7.90;4.33;;;14.00;99.90;;;;;;5027349;28;20741;-71
2021/07/23 10:05:06;;;;;;;8.03;3.77;;;14.00;99.90;;;;;;5025669;28;20183;-69
2021/07/23 10:07:53;;;;;;;11.53;6.37;;;14.00;99.90;;;;;;5021125;28;20227;-69
2021/07/23 10:10:21;;;;;;;13.37;7.67;;;13.90;99.90;;;;;;5031979;28;20177;-68
2021/07/23 10:12:50;;;;;;;14.13;7.00;;;13.90;99.90;;;;;;5027173;28;20318;-68
2021/07/23 10:15:21;;;;;;;8.87;4.63;;;13.90;99.90;;;;;;5031439;28;20545;-68
2021/07/23 10:17:49;;;;;;;9.50;3.63;;;13.90;99.90;;;;;;5029954;28;20544;-68
2021/07/23 10:20:20;;;;;;;10.27;5.93;;;13.90;99.90;;;;;;5023719;28;20223;-67
2021/07/23 10:22:54;;;;;;;14.27;11.17;;;13.80;99.90;;;;;;5027076;28;20272;-67
2021/07/23 10:25:31;;;;;;;7.97;3.80;;;13.80;99.90;;;;;;5029307;28;20649;-67
2021/07/23 10:27:58;;;;;;;5.10;3.20;;;13.80;99.90;;;;;;5030320;28;20283;-69
2021/07/23 10:30:33;;;;;;;4.13;2.60;;;13.80;99.90;;;;;;5031520;28;20319;-68
2021/07/23 10:33:01;;;;;;;2.93;2.20;;;13.80;99.90;;;;;;5024309;28;20232;-67
2021/07/23 10:35:31;;;;;;;2.43;1.97;;;13.90;99.90;;;;;;5028416;28;20219;-68
2021/07/23 10:37:59;;;;;;;6.33;2.77;;;14.00;99.90;;;;;;5026829;28;20180;-67
2021/07/23 10:40:36;;;;;;;7.93;3.23;;;14.00;99.90;;;;;;5035280;28;20669;-69
2021/07/23 10:43:23;;;;;;;6.23;2.43;;;14.00;99.90;;;;;;5027390;28;20185;-66
2021/07/23 10:45:50;;;;;;;5.00;1.90;;;13.90;99.90;;;;;;5027398;28;20185;-67
2021/07/23 10:48:44;;;;;;;2.83;2.20;;;13.90;99.90;;;;;;5020521;28;20180;-68
2021/07/23 10:51:47;;;;;;;4.60;2.37;;;14.00;99.90;;;;;;5015604;28;20201;-66
2021/07/23 10:54:15;;;;;;;6.07;2.53;;;14.00;99.90;;;;;;5033800;28;20184;-67
2021/07/23 10:57:04;;;;;;;4.47;2.20;;;14.00;99.90;;;;;;5033466;28;20181;-67
2021/07/23 10:59:43;;;;;;;5.03;2.37;;;14.00;99.90;;;;;;5008471;28;20228;-68
2021/07/23 11:02:18;;;;;;;7.60;4.07;;;14.00;99.90;;;;;;5028175;28;20181;-68
2021/07/23 11:04:46;;;;;;;5.33;4.83;;;14.10;99.90;;;;;;5024800;28;20234;-67
2021/07/23 11:07:17;;;;;;;5.70;2.33;;;14.10;99.90;;;;;;5022834;28;20173;-67
2021/07/23 11:09:46;;;;;;;7.87;2.23;;;14.10;99.90;;;;;;5027674;28;20189;-67
2021/07/23 11:12:21;;;;;;;2.93;1.97;;;14.10;99.90;;;;;;5023967;28;20181;-68
2021/07/23 11:15:02;;;;;;;2.07;1.83;;;14.20;99.90;;;;;;5022578;28;20208;-67
2021/07/23 11:17:31;;;;;;;3.13;1.80;;;14.20;99.90;;;;;;5027214;28;20801;-68
2021/07/23 11:20:03;;;;;;;5.40;1.83;;;14.10;99.90;;;;;;5029731;28;20601;-68
2021/07/23 11:22:33;;;;;;;2.93;1.73;;;14.10;99.90;;;;;;5026654;28;20217;-68
2021/07/23 11:25:05;;;;;;;5.07;1.77;;;14.10;99.90;;;;;;5025159;28;20200;-68
2021/07/23 11:27:42;;;;;;;2.30;1.63;;;14.10;99.90;;;;;;5023825;28;20184;-70
2021/07/23 11:30:20;;;;;;;3.00;1.90;;;14.10;99.90;;;;;;5020266;28;20189;-68
2021/07/23 11:32:58;;;;;;;4.60;1.77;;;14.10;99.90;;;;;;5018217;28;20251;-69
2021/07/23 11:35:33;;;;;;;3.43;1.60;;;14.10;99.90;;;;;;5024880;28;20212;-68
2021/07/23 11:38:10;;;;;;;3.20;1.80;;;14.10;99.90;;;;;;5021418;28;20191;-67
2021/07/23 11:40:37;;;;;;;6.07;1.63;;;14.10;99.90;;;;;;5018782;28;20206;-68
2021/07/23 11:43:05;;;;;;;2.67;1.50;;;14.10;99.90;;;;;;5013000;28;20177;-68
2021/07/23 11:45:37;;;;;;;5.17;1.90;;;14.10;99.90;;;;;;5026190;28;20221;-70
2021/07/23 11:48:20;;;;;;;7.77;6.03;;;14.10;99.90;;;;;;5030126;28;20180;-69
2021/07/23 11:50:55;;;;;;;4.77;3.17;;;14.10;99.90;;;;;;5029540;28;20195;-69
2021/07/23 11:53:24;;;;;;;5.57;2.50;;;14.00;99.90;;;;;;5031303;28;20215;-70
2021/07/23 11:55:52;;;;;;;4.33;1.37;;;14.00;99.90;;;;;;5026879;28;20206;-70
2021/07/23 11:58:30;;;;;;;2.33;1.40;;;14.00;99.90;;;;;;5030106;28;20296;-68
2021/07/23 12:00:58;;;;;;;3.90;1.53;;;14.00;99.90;;;;;;5024269;28;20188;-70
2021/07/23 12:03:27;;;;;;;2.50;1.60;;;14.00;99.90;;;;;;5024009;28;20525;-70
2021/07/23 12:05:54;;;;;;;4.37;2.10;;;14.00;99.90;;;;;;5021072;28;20184;-70
2021/07/23 12:08:24;;;;;;;2.03;1.37;;;14.00;99.90;;;;;;5019491;28;20182;-70
2021/07/23 12:10:56;;;;;;;3.23;1.43;;;13.90;99.90;;;;;;5033669;28;20182;-71
2021/07/23 12:13:28;;;;;;;4.17;1.57;;;14.00;99.90;;;;;;5033423;28;20184;-67
2021/07/23 12:15:57;;;;;;;2.63;1.27;;;13.90;99.90;;;;;;5020285;28;20174;-69
2021/07/23 12:18:25;;;;;;;10.30;3.63;;;13.90;99.90;;;;;;5020484;28;20213;-70
2021/07/23 12:21:07;;;;;;;3.07;1.70;;;13.90;99.90;;;;;;5029092;28;20210;-68
2021/07/23 12:23:34;;;;;;;3.27;1.27;;;13.90;99.90;;;;;;5031252;28;20188;-69
2021/07/23 12:26:02;;;;;;;1.63;1.10;;;13.90;99.90;;;;;;5031178;28;20204;-69
2021/07/23 12:28:29;;;;;;;2.17;1.40;;;13.90;99.90;;;;;;5032121;28;20176;-68
2021/07/23 12:30:56;;;;;;;2.93;1.30;;;13.90;99.90;;;;;;5031798;28;20627;-69
2021/07/23 12:33:30;;;;;;;2.60;1.50;;;13.90;99.90;;;;;;5033522;28;20254;-69
2021/07/23 12:36:01;;;;;;;3.67;1.20;;;13.90;99.90;;;;;;5025809;28;20568;-70
2021/07/23 12:38:29;;;;;;;2.50;0.93;;;13.90;99.90;;;;;;5028567;28;20295;-70
2021/07/23 12:41:02;;;;;;;4.10;1.00;;;13.90;99.90;;;;;;5032502;28;20188;-69
2021/07/23 12:43:30;;;;;;;1.97;0.90;;;13.90;99.90;;;;;;5032739;28;20267;-71
2021/07/23 12:45:59;;;;;;;1.40;1.00;;;13.90;99.90;;;;;;5025635;28;20254;-67
2021/07/23 12:48:35;;;;;;;2.03;1.17;;;13.90;99.90;;;;;;5018430;28;20555;-67
2021/07/23 12:51:11;;;;;;;3.80;1.27;;;13.90;99.90;;;;;;5023702;28;20234;-68
2021/07/23 12:53:39;;;;;;;3.03;1.20;;;13.90;99.90;;;;;;5025212;28;20191;-68
2021/07/23 12:56:10;;;;;;;2.53;1.10;;;13.90;99.90;;;;;;5033167;28;20172;-68